Time;durP1;ratioP1;P1;durP2;ratioP2;P2;SDS_P1;SDS_P2;PMS_P1;PMS_P2;Temp;Humidity;BMP_temperature;BMP_pressure;BME280_temperature;BME280_humidity;BME280_pressure;Samples;Min_cycle;Max_cycle;Signal;HPM_P1;HPM_P2
2023/06/03 00:00:54;;;;;;;5.57;2.63;;;;;;;;;;5052053;28;20185;-65
2023/06/03 00:03:20;;;;;;;3.23;2.53;;;14.50;99.90;;;;;;5051895;28;20181;-64
2023/06/03 00:05:45;;;;;;;3.87;2.70;;;14.50;99.90;;;;;;5067310;28;20201;-65
2023/06/03 00:08:11;;;;;;;2.87;2.63;;;14.40;99.90;;;;;;5051266;28;20571;-65
2023/06/03 00:10:36;;;;;;;4.50;2.57;;;14.50;99.90;;;;;;5051937;28;20289;-66
2023/06/03 00:13:02;;;;;;;2.83;2.63;;;14.40;99.90;;;;;;5062677;28;20174;-65
2023/06/03 00:15:28;;;;;;;5.63;2.90;;;14.40;99.90;;;;;;5042348;28;20206;-65
2023/06/03 00:17:53;;;;;;;3.10;2.40;;;14.40;99.90;;;;;;5051922;28;20643;-65
2023/06/03 00:20:19;;;;;;;11.63;3.07;;;14.40;99.90;;;;;;5052010;28;20674;-64
2023/06/03 00:22:45;;;;;;;11.00;3.00;;;14.40;99.90;;;;;;5051896;28;20173;-65
2023/06/03 00:25:11;;;;;;;4.47;2.37;;;14.40;99.90;;;;;;5051923;28;20179;-66
2023/06/03 00:27:41;;;;;;;6.73;2.40;;;14.40;99.90;;;;;;5052321;28;20170;-65
2023/06/03 00:30:07;;;;;;;4.07;2.47;;;14.40;99.90;;;;;;5051993;28;20232;-65
2023/06/03 00:32:34;;;;;;;4.13;2.70;;;14.40;99.90;;;;;;5051679;28;20178;-66
2023/06/03 00:35:00;;;;;;;3.23;2.40;;;14.30;99.90;;;;;;5051353;28;20237;-65
2023/06/03 00:37:25;;;;;;;4.83;2.90;;;14.20;99.90;;;;;;5051434;28;20619;-65
2023/06/03 00:39:51;;;;;;;5.83;3.17;;;14.20;99.90;;;;;;5054694;28;20174;-64
2023/06/03 00:42:16;;;;;;;6.57;2.70;;;14.10;99.90;;;;;;5055038;28;20202;-66
2023/06/03 00:44:42;;;;;;;3.33;2.40;;;14.20;99.90;;;;;;5055109;28;20193;-65
2023/06/03 00:47:08;;;;;;;5.53;2.30;;;14.10;99.90;;;;;;5054871;28;20202;-66
2023/06/03 00:49:34;;;;;;;5.10;2.80;;;14.00;99.90;;;;;;5055526;28;20198;-66
2023/06/03 00:52:01;;;;;;;4.80;2.87;;;14.00;99.90;;;;;;5070783;28;20182;-65
2023/06/03 00:54:27;;;;;;;4.90;2.73;;;14.10;99.90;;;;;;5055202;28;20249;-66
2023/06/03 00:56:53;;;;;;;4.57;2.40;;;14.00;99.90;;;;;;5055204;28;20217;-64
2023/06/03 00:59:20;;;;;;;5.90;2.47;;;14.00;99.90;;;;;;5055578;28;20173;-65
2023/06/03 01:01:46;;;;;;;7.53;2.37;;;14.10;99.90;;;;;;5054585;28;20175;-66
2023/06/03 01:04:16;;;;;;;3.77;2.93;;;;;;;;;;5054556;28;20180;-65
2023/06/03 01:06:54;;;;;;;4.93;2.70;;;14.10;99.90;;;;;;5054782;28;20674;-64
2023/06/03 01:09:40;;;;;;;8.87;2.43;;;14.00;99.90;;;;;;5054847;28;20178;-65
2023/06/03 01:12:18;;;;;;;3.13;2.30;;;13.90;99.90;;;;;;5055059;28;20312;-67
2023/06/03 01:14:53;;;;;;;6.80;2.60;;;13.90;99.90;;;;;;5054464;28;20194;-65
2023/06/03 01:17:20;;;;;;;4.07;2.40;;;13.90;99.90;;;;;;5054937;28;20197;-66
2023/06/03 01:19:49;;;;;;;5.07;2.70;;;13.90;99.90;;;;;;5054571;28;20177;-64
2023/06/03 01:22:20;;;;;;;8.13;2.70;;;13.80;99.90;;;;;;5054407;28;20174;-66
2023/06/03 01:24:48;;;;;;;5.00;2.63;;;13.90;99.90;;;;;;5054398;28;20174;-64
2023/06/03 01:27:13;;;;;;;4.57;2.40;;;13.80;99.90;;;;;;5054747;28;20273;-65
2023/06/03 01:29:44;;;;;;;2.77;2.30;;;13.70;99.90;;;;;;5054625;28;20310;-64
2023/06/03 01:32:13;;;;;;;4.53;2.63;;;13.80;99.90;;;;;;5054450;28;20873;-65
2023/06/03 01:34:40;;;;;;;5.30;2.50;;;13.80;99.90;;;;;;5054750;28;20228;-65
2023/06/03 01:37:07;;;;;;;4.10;2.33;;;13.70;99.90;;;;;;5070058;28;20194;-65
2023/06/03 01:39:34;;;;;;;4.43;2.30;;;;;;;;;;5054980;28;20232;-66
2023/06/03 01:42:00;;;;;;;2.97;2.40;;;13.70;99.90;;;;;;5054487;28;20586;-64
2023/06/03 01:44:25;;;;;;;3.30;2.23;;;13.70;99.90;;;;;;5054433;28;20228;-66
2023/06/03 01:46:51;;;;;;;5.27;2.03;;;13.60;99.90;;;;;;5055176;28;20670;-64
2023/06/03 01:49:17;;;;;;;5.77;2.33;;;13.60;99.90;;;;;;5054581;28;20171;-66
2023/06/03 01:51:43;;;;;;;3.33;2.57;;;13.60;99.90;;;;;;5054434;28;20162;-64
2023/06/03 01:54:09;;;;;;;4.20;2.23;;;13.60;99.90;;;;;;5054825;28;20196;-66
2023/06/03 01:56:34;;;;;;;3.53;2.20;;;13.60;99.90;;;;;;5069579;28;20273;-66
2023/06/03 01:59:00;;;;;;;5.37;2.20;;;13.60;99.90;;;;;;5069911;28;20189;-66
2023/06/03 02:01:26;;;;;;;5.37;2.40;;;13.60;99.90;;;;;;5069817;28;20583;-65
2023/06/03 02:03:51;;;;;;;5.00;2.20;;;13.60;99.90;;;;;;5053626;28;20179;-64
2023/06/03 02:06:17;;;;;;;2.23;2.03;;;13.60;99.90;;;;;;5053418;28;20198;-65
2023/06/03 02:08:43;;;;;;;6.93;3.03;;;13.40;99.90;;;;;;5053918;28;20213;-65
2023/06/03 02:11:08;;;;;;;5.00;2.30;;;13.30;99.90;;;;;;5053734;28;20221;-65
2023/06/03 02:13:34;;;;;;;5.70;2.90;;;13.30;99.90;;;;;;5053912;28;20174;-65
2023/06/03 02:15:59;;;;;;;3.97;2.50;;;13.30;99.90;;;;;;5053217;28;20281;-65
2023/06/03 02:18:26;;;;;;;3.13;1.97;;;13.30;99.90;;;;;;5053982;28;20174;-66
2023/06/03 02:20:52;;;;;;;4.07;2.10;;;13.20;99.90;;;;;;5053564;28;20198;-64
2023/06/03 02:23:17;;;;;;;3.87;2.17;;;13.30;99.90;;;;;;5053381;28;20208;-64
2023/06/03 02:25:43;;;;;;;6.50;2.30;;;13.10;99.90;;;;;;5053395;28;20263;-65
2023/06/03 02:28:09;;;;;;;2.40;2.00;;;13.10;99.90;;;;;;5053768;28;20171;-65
2023/06/03 02:30:34;;;;;;;8.43;2.80;;;13.10;99.90;;;;;;5053208;28;20529;-66
2023/06/03 02:33:00;;;;;;;2.90;2.40;;;;;;;;;;5068686;28;20170;-66
2023/06/03 02:35:26;;;;;;;4.50;2.40;;;13.00;99.90;;;;;;5052879;28;20199;-65
2023/06/03 02:37:51;;;;;;;4.23;2.27;;;13.00;99.90;;;;;;5053373;28;20175;-64
2023/06/03 02:40:17;;;;;;;2.67;2.20;;;12.90;99.90;;;;;;5053346;28;20171;-65
2023/06/03 02:42:42;;;;;;;4.10;2.40;;;13.00;99.90;;;;;;5053198;28;20178;-65
2023/06/03 02:45:08;;;;;;;4.63;1.87;;;12.80;99.90;;;;;;5052679;28;20653;-65
2023/06/03 02:47:34;;;;;;;4.20;2.20;;;12.80;99.90;;;;;;5052785;28;20296;-65
2023/06/03 02:50:00;;;;;;;4.53;2.20;;;12.80;99.90;;;;;;5053483;28;20206;-64
2023/06/03 02:52:25;;;;;;;6.00;1.97;;;12.80;99.90;;;;;;5068768;28;20178;-64
2023/06/03 02:54:51;;;;;;;2.43;2.20;;;12.70;99.90;;;;;;5052388;28;20201;-65
2023/06/03 02:57:17;;;;;;;4.77;2.43;;;12.80;99.90;;;;;;5052736;28;20256;-64
2023/06/03 02:59:42;;;;;;;3.87;2.57;;;12.70;99.90;;;;;;5052867;28;20178;-65
2023/06/03 03:02:09;;;;;;;5.97;2.00;;;12.60;99.90;;;;;;5052038;28;20178;-66
2023/06/03 03:04:36;;;;;;;4.80;2.53;;;12.60;99.90;;;;;;5067625;28;20183;-65
2023/06/03 03:07:08;;;;;;;5.13;2.37;;;12.60;99.90;;;;;;5057942;22;20221;-64
2023/06/03 03:09:34;;;;;;;2.07;1.87;;;12.60;99.90;;;;;;4971108;28;20258;-64
2023/06/03 03:12:00;;;;;;;4.93;2.43;;;12.60;99.90;;;;;;4971125;28;20244;-64
2023/06/03 03:14:25;;;;;;;3.80;2.40;;;12.60;99.90;;;;;;4971056;28;20734;-64
2023/06/03 03:16:52;;;;;;;4.60;2.10;;;12.50;99.90;;;;;;4971019;28;20574;-64
2023/06/03 03:19:18;;;;;;;5.30;2.20;;;12.50;99.90;;;;;;4971185;28;20531;-63
2023/06/03 03:21:44;;;;;;;5.13;2.40;;;12.50;99.90;;;;;;4970676;28;20166;-66
2023/06/03 03:24:10;;;;;;;4.07;2.43;;;12.50;99.90;;;;;;4984972;28;20537;-64
2023/06/03 03:26:36;;;;;;;5.90;2.70;;;12.50;99.90;;;;;;4970271;28;20193;-65
2023/06/03 03:29:02;;;;;;;5.40;2.70;;;12.50;99.90;;;;;;4970835;28;20161;-65
2023/06/03 03:31:29;;;;;;;2.57;2.27;;;12.50;99.90;;;;;;4970622;28;20288;-65
2023/06/03 03:33:55;;;;;;;4.60;2.23;;;12.50;99.90;;;;;;4969517;28;20197;-66
2023/06/03 03:36:23;;;;;;;4.80;2.63;;;12.50;99.90;;;;;;4970933;28;20195;-66
2023/06/03 03:39:02;;;;;;;3.27;2.37;;;12.50;99.90;;;;;;4970701;28;20540;-65
2023/06/03 03:41:28;;;;;;;3.60;2.30;;;12.50;99.90;;;;;;4970695;28;20157;-66
2023/06/03 03:43:54;;;;;;;5.03;2.47;;;12.50;99.90;;;;;;4970520;28;20181;-65
2023/06/03 03:46:19;;;;;;;3.87;2.30;;;12.40;99.90;;;;;;4970768;28;20250;-67
2023/06/03 03:48:45;;;;;;;5.23;2.70;;;12.30;99.90;;;;;;4970873;28;20177;-66
2023/06/03 03:51:12;;;;;;;6.70;2.30;;;12.30;99.90;;;;;;4970734;28;20233;-66
2023/06/03 03:53:43;;;;;;;5.60;2.67;;;12.40;99.90;;;;;;4970738;28;20165;-66
2023/06/03 03:56:08;;;;;;;5.57;2.80;;;12.40;99.90;;;;;;4970444;28;20252;-64
2023/06/03 03:58:37;;;;;;;3.60;1.97;;;12.50;99.90;;;;;;4970761;28;20639;-66
2023/06/03 04:01:23;;;;;;;4.80;2.40;;;12.50;99.90;;;;;;4970262;28;20180;-65
2023/06/03 04:03:51;;;;;;;6.20;2.50;;;12.50;99.90;;;;;;4969140;28;20577;-66
2023/06/03 04:06:37;;;;;;;4.57;2.47;;;12.50;99.90;;;;;;4970510;28;20197;-65
2023/06/03 04:09:04;;;;;;;2.97;2.67;;;12.50;99.90;;;;;;4969028;28;20285;-66
2023/06/03 04:11:36;;;;;;;8.30;2.57;;;12.60;99.90;;;;;;4970264;28;20789;-67
2023/06/03 04:14:03;;;;;;;5.50;2.67;;;12.50;99.90;;;;;;4973175;28;20514;-66
2023/06/03 04:16:46;;;;;;;6.80;2.50;;;12.50;99.90;;;;;;4973701;28;20210;-67
2023/06/03 04:19:30;;;;;;;5.77;2.87;;;12.50;99.90;;;;;;4973747;28;20149;-67
2023/06/03 04:21:57;;;;;;;4.77;2.63;;;12.60;99.90;;;;;;4973642;28;20146;-66
2023/06/03 04:24:23;;;;;;;2.97;2.30;;;12.60;99.90;;;;;;4988471;28;20165;-66
2023/06/03 04:26:49;;;;;;;6.50;2.40;;;12.60;99.90;;;;;;4974067;28;20289;-65
2023/06/03 04:29:15;;;;;;;5.83;2.73;;;12.60;99.90;;;;;;4974094;28;20173;-65
2023/06/03 04:31:41;;;;;;;6.73;2.50;;;12.60;99.90;;;;;;4973664;28;20565;-65
2023/06/03 04:34:06;;;;;;;3.03;2.30;;;12.70;99.90;;;;;;4973720;28;20212;-66
2023/06/03 04:36:32;;;;;;;7.90;2.50;;;12.80;99.90;;;;;;4973274;28;20201;-66
2023/06/03 04:38:58;;;;;;;5.10;2.70;;;12.70;99.90;;;;;;4973444;28;20173;-66
2023/06/03 04:41:27;;;;;;;3.90;2.60;;;12.90;99.90;;;;;;4973305;28;20166;-66
2023/06/03 04:43:53;;;;;;;5.60;2.77;;;12.90;99.90;;;;;;4973318;28;20633;-66
2023/06/03 04:46:19;;;;;;;4.53;2.43;;;13.00;99.90;;;;;;4973222;28;20240;-66
2023/06/03 04:48:48;;;;;;;4.00;2.37;;;13.00;99.90;;;;;;4988028;28;20223;-66
2023/06/03 04:51:13;;;;;;;4.80;2.43;;;13.80;99.90;;;;;;4972840;28;20185;-64
2023/06/03 04:53:40;;;;;;;3.60;2.40;;;14.20;99.90;;;;;;4973066;28;20170;-66
2023/06/03 04:56:08;;;;;;;7.47;2.40;;;14.60;99.90;;;;;;4972898;28;20224;-66
2023/06/03 04:58:35;;;;;;;5.50;2.17;;;14.60;99.90;;;;;;4972995;28;20581;-65
2023/06/03 05:01:04;;;;;;;4.30;2.20;;;14.40;99.90;;;;;;4972974;28;20174;-66
2023/06/03 05:03:30;;;;;;;4.00;1.90;;;14.50;99.90;;;;;;4972936;28;20176;-66
2023/06/03 05:05:57;;;;;;;5.37;2.40;;;14.30;99.90;;;;;;4972879;28;20260;-66
2023/06/03 05:08:23;;;;;;;3.17;2.13;;;14.30;99.90;;;;;;4972792;28;20231;-66
2023/06/03 05:10:48;;;;;;;3.60;2.73;;;14.30;99.90;;;;;;4973056;28;20554;-66
2023/06/03 05:13:14;;;;;;;3.47;2.47;;;14.30;99.90;;;;;;4972849;28;20193;-65
2023/06/03 05:15:40;;;;;;;3.97;2.47;;;14.30;99.90;;;;;;4972695;28;20190;-66
2023/06/03 05:18:05;;;;;;;7.13;2.53;;;14.30;99.90;;;;;;4971566;28;20177;-66
2023/06/03 05:20:32;;;;;;;4.53;2.53;;;14.40;99.90;;;;;;4972644;28;20182;-66
2023/06/03 05:22:57;;;;;;;5.67;3.10;;;14.40;99.90;;;;;;4972751;28;20172;-65
2023/06/03 05:25:23;;;;;;;4.13;2.73;;;14.50;99.90;;;;;;4970640;28;20197;-66
2023/06/03 05:27:49;;;;;;;5.73;2.60;;;14.60;99.90;;;;;;4972716;28;20648;-66
2023/06/03 05:30:14;;;;;;;5.93;2.70;;;14.70;99.90;;;;;;4972554;28;20237;-65
2023/06/03 05:32:41;;;;;;;4.80;2.63;;;14.70;99.90;;;;;;4972489;28;20162;-66
2023/06/03 05:35:07;;;;;;;4.93;2.43;;;14.50;99.90;;;;;;4972436;28;20172;-65
2023/06/03 05:37:33;;;;;;;4.20;2.57;;;14.60;99.90;;;;;;4987451;28;20348;-65
2023/06/03 05:39:58;;;;;;;4.97;2.70;;;14.70;99.90;;;;;;4972498;28;20197;-65
2023/06/03 05:42:24;;;;;;;6.10;2.23;;;14.70;99.90;;;;;;4972391;28;20212;-65
2023/06/03 05:44:49;;;;;;;8.90;2.73;;;14.90;99.90;;;;;;4972382;28;20177;-66
2023/06/03 05:47:15;;;;;;;2.73;2.40;;;15.30;99.90;;;;;;4972293;28;20207;-66
2023/06/03 05:49:40;;;;;;;4.50;2.57;;;15.50;99.90;;;;;;4987084;28;20205;-66
2023/06/03 05:52:06;;;;;;;4.77;2.60;;;15.60;99.90;;;;;;4972301;28;20201;-66
2023/06/03 05:54:32;;;;;;;2.60;2.40;;;15.40;99.90;;;;;;4972199;28;20252;-66
2023/06/03 05:56:58;;;;;;;6.23;2.50;;;15.40;99.90;;;;;;4972309;28;20185;-66
2023/06/03 05:59:24;;;;;;;5.17;3.10;;;15.30;99.90;;;;;;4972222;28;20150;-65
2023/06/03 06:01:50;;;;;;;4.70;2.50;;;15.30;99.90;;;;;;4970914;28;20579;-65
2023/06/03 06:04:15;;;;;;;2.83;2.50;;;15.50;99.90;;;;;;4972061;28;20198;-65
2023/06/03 06:06:41;;;;;;;7.77;2.60;;;15.60;99.90;;;;;;4972049;28;20181;-66
2023/06/03 06:09:06;;;;;;;5.23;2.83;;;15.70;99.90;;;;;;4971951;28;20197;-67
2023/06/03 06:11:32;;;;;;;5.50;2.80;;;15.70;99.90;;;;;;4972245;28;20549;-66
2023/06/03 06:13:58;;;;;;;5.37;2.90;;;15.70;99.90;;;;;;4971895;28;20694;-66
2023/06/03 06:16:24;;;;;;;5.50;2.97;;;;;;;;;;4971826;28;20223;-66
2023/06/03 06:18:49;;;;;;;5.33;3.00;;;15.80;99.90;;;;;;4971917;28;20557;-65
2023/06/03 06:21:16;;;;;;;5.17;3.03;;;15.70;99.90;;;;;;4971821;28;20173;-66
2023/06/03 06:23:42;;;;;;;6.00;2.73;;;15.70;99.90;;;;;;4986690;28;20180;-66
2023/06/03 06:26:08;;;;;;;4.87;2.37;;;15.80;99.90;;;;;;4971536;28;20691;-65
2023/06/03 06:28:34;;;;;;;6.83;3.00;;;15.90;99.90;;;;;;4971661;28;20252;-65
2023/06/03 06:31:04;;;;;;;4.33;2.70;;;16.00;99.90;;;;;;4971655;28;20197;-65
2023/06/03 06:33:32;;;;;;;3.83;2.50;;;16.20;99.90;;;;;;4971578;28;20188;-65
2023/06/03 06:36:00;;;;;;;5.53;2.80;;;16.00;99.90;;;;;;4970540;28;20200;-65
2023/06/03 06:38:25;;;;;;;5.00;2.93;;;16.20;99.90;;;;;;4971596;28;20170;-65
2023/06/03 06:40:53;;;;;;;4.63;3.00;;;16.30;99.90;;;;;;4971573;28;20176;-65
2023/06/03 06:43:21;;;;;;;4.30;2.73;;;16.40;99.90;;;;;;4971486;28;20174;-65
2023/06/03 06:45:48;;;;;;;9.83;2.70;;;16.40;99.90;;;;;;4971344;28;20192;-65
2023/06/03 06:48:14;;;;;;;6.13;2.60;;;16.30;99.90;;;;;;4971365;28;20166;-65
2023/06/03 06:50:55;;;;;;;6.03;2.80;;;16.30;99.90;;;;;;4971344;28;20193;-66
2023/06/03 06:53:22;;;;;;;5.23;2.60;;;16.20;99.90;;;;;;4971439;28;20258;-65
2023/06/03 06:56:02;;;;;;;4.17;2.90;;;16.30;99.90;;;;;;4971189;28;20185;-64
2023/06/03 06:58:34;;;;;;;5.10;2.77;;;16.40;99.90;;;;;;4971173;28;20175;-66
2023/06/03 07:01:00;;;;;;;4.57;2.97;;;16.30;99.90;;;;;;4971339;28;20222;-66
2023/06/03 07:03:26;;;;;;;4.10;2.83;;;16.20;99.90;;;;;;4971449;28;20181;-65
2023/06/03 07:05:53;;;;;;;4.63;2.60;;;16.60;99.90;;;;;;4971058;28;20213;-66
2023/06/03 07:08:22;;;;;;;4.97;2.57;;;16.80;99.90;;;;;;4985941;28;20193;-66
2023/06/03 07:10:48;;;;;;;4.63;2.97;;;16.70;99.90;;;;;;4970976;28;20716;-66
2023/06/03 07:13:18;;;;;;;7.00;2.80;;;16.90;99.90;;;;;;4971085;28;20169;-66
2023/06/03 07:15:44;;;;;;;3.83;2.47;;;16.70;99.90;;;;;;4970966;28;20200;-66
2023/06/03 07:18:11;;;;;;;4.37;3.10;;;16.90;99.90;;;;;;4970960;28;20166;-66
2023/06/03 07:20:40;;;;;;;4.53;2.90;;;16.80;99.90;;;;;;4970963;28;20707;-65
2023/06/03 07:23:21;;;;;;;4.47;2.90;;;16.80;99.90;;;;;;4970834;28;20174;-66
2023/06/03 07:25:51;;;;;;;4.20;3.10;;;17.20;99.90;;;;;;4970880;28;20247;-63
2023/06/03 07:28:23;;;;;;;7.63;3.33;;;17.10;99.90;;;;;;4970531;28;20177;-65
2023/06/03 07:30:49;;;;;;;6.50;3.00;;;17.20;99.90;;;;;;4970897;28;20194;-63
2023/06/03 07:33:47;;;;;;;5.37;3.03;;;17.10;99.90;;;;;;4980460;28;20245;-65
2023/06/03 07:36:13;;;;;;;6.83;3.13;;;17.50;99.90;;;;;;4985091;28;20291;-66
2023/06/03 07:38:38;;;;;;;5.13;2.80;;;17.30;99.90;;;;;;4970802;28;20601;-66
2023/06/03 07:41:05;;;;;;;3.07;2.70;;;17.30;99.90;;;;;;4970874;28;20167;-65
2023/06/03 07:43:32;;;;;;;3.93;2.80;;;17.60;99.90;;;;;;4971090;28;20259;-66
2023/06/03 07:46:02;;;;;;;5.50;3.30;;;17.70;99.90;;;;;;4982370;28;20680;-65
2023/06/03 07:48:28;;;;;;;4.10;2.93;;;17.70;99.90;;;;;;4969869;28;20214;-65
2023/06/03 07:50:54;;;;;;;4.77;3.63;;;17.60;99.90;;;;;;4970343;28;20227;-65
2023/06/03 07:53:23;;;;;;;3.83;3.30;;;17.40;99.90;;;;;;4970419;28;20683;-66
2023/06/03 07:55:50;;;;;;;5.53;3.23;;;17.60;99.90;;;;;;4968866;28;20205;-66
2023/06/03 07:58:16;;;;;;;5.43;3.10;;;17.70;99.90;;;;;;4970473;28;20573;-66
2023/06/03 08:00:49;;;;;;;7.23;3.60;;;18.00;99.90;;;;;;4970536;28;20178;-66
2023/06/03 08:03:18;;;;;;;5.20;3.10;;;18.10;99.90;;;;;;4970470;28;20211;-65
2023/06/03 08:05:47;;;;;;;4.70;3.13;;;18.00;99.90;;;;;;4970035;28;20604;-64
2023/06/03 08:08:14;;;;;;;4.73;3.37;;;18.00;99.90;;;;;;4969980;28;20189;-65
2023/06/03 08:10:42;;;;;;;3.67;3.30;;;18.00;99.90;;;;;;4970065;28;20199;-65
2023/06/03 08:13:07;;;;;;;4.20;3.33;;;18.20;99.90;;;;;;4958779;28;20181;-65
2023/06/03 08:15:35;;;;;;;3.93;3.17;;;18.20;99.90;;;;;;4950575;28;20189;-65
2023/06/03 08:18:05;;;;;;;5.23;3.10;;;18.60;99.90;;;;;;4950871;29;20217;-66
2023/06/03 08:20:33;;;;;;;6.40;3.50;;;18.60;99.90;;;;;;4952855;28;20219;-66
2023/06/03 08:22:59;;;;;;;4.23;2.97;;;18.80;99.90;;;;;;4978746;28;20647;-66
2023/06/03 08:25:25;;;;;;;6.03;2.90;;;18.60;99.90;;;;;;4976167;28;20695;-65
2023/06/03 08:27:51;;;;;;;4.37;3.30;;;18.70;99.90;;;;;;4980506;28;20177;-65
2023/06/03 08:30:20;;;;;;;4.60;2.87;;;19.00;99.90;;;;;;4972430;28;20197;-66
2023/06/03 08:32:46;;;;;;;3.97;2.80;;;19.20;99.90;;;;;;4989209;28;20613;-65
2023/06/03 08:35:13;;;;;;;4.43;2.97;;;19.00;99.90;;;;;;4975843;28;20180;-65
2023/06/03 08:37:40;;;;;;;5.97;3.08;;;19.10;99.90;;;;;;4966159;28;20512;-66
2023/06/03 08:40:11;;;;;;;3.78;3.38;;;19.10;99.90;;;;;;4956242;28;20173;-65
2023/06/03 08:42:45;;;;;;;5.82;2.88;;;19.20;99.90;;;;;;4957265;28;20182;-65
2023/06/03 08:45:13;;;;;;;3.83;3.03;;;19.30;99.90;;;;;;4990628;28;20174;-65
2023/06/03 08:48:10;;;;;;;3.42;3.05;;;19.30;99.90;;;;;;5054493;28;20169;-65
2023/06/03 08:50:36;;;;;;;4.45;2.95;;;19.60;99.90;;;;;;4975440;28;20198;-65
2023/06/03 08:53:08;;;;;;;4.95;3.03;;;19.70;99.90;;;;;;5069347;28;20158;-65
2023/06/03 08:55:36;;;;;;;6.53;3.30;;;19.60;99.90;;;;;;4973097;28;20196;-65
2023/06/03 08:58:22;;;;;;;4.60;3.17;;;19.90;99.90;;;;;;4976375;28;20173;-66
2023/06/03 09:00:55;;;;;;;6.18;3.35;;;19.90;99.90;;;;;;4990789;28;20172;-64
2023/06/03 09:03:22;;;;;;;3.42;2.97;;;19.70;99.90;;;;;;4975085;28;20641;-65
2023/06/03 09:05:48;;;;;;;4.05;3.03;;;19.70;99.90;;;;;;5052487;28;20185;-65
2023/06/03 09:08:16;;;;;;;5.95;3.60;;;19.90;99.90;;;;;;5008852;22;20345;-72
2023/06/03 09:10:45;;;;;;;5.07;3.20;;;19.90;99.90;;;;;;4986646;28;20215;-71
2023/06/03 09:13:13;;;;;;;8.95;2.85;;;20.00;99.90;;;;;;4978578;28;20189;-69
2023/06/03 09:15:42;;;;;;;4.65;2.72;;;20.10;99.90;;;;;;4989515;28;20185;-69
2023/06/03 09:18:07;;;;;;;4.72;3.20;;;20.40;99.90;;;;;;4973672;28;20218;-69
2023/06/03 09:20:35;;;;;;;3.15;2.88;;;20.40;99.90;;;;;;4973909;28;20630;-70
2023/06/03 09:23:01;;;;;;;6.80;3.05;;;20.70;99.90;;;;;;4985545;28;20185;-69
2023/06/03 09:25:27;;;;;;;3.13;2.60;;;20.30;99.90;;;;;;4984998;28;20208;-70
2023/06/03 09:27:53;;;;;;;3.80;2.65;;;20.20;99.90;;;;;;4973638;28;20184;-69
2023/06/03 09:30:19;;;;;;;8.50;3.03;;;20.40;99.90;;;;;;4972773;28;20212;-69
2023/06/03 09:32:44;;;;;;;5.05;3.08;;;20.30;99.90;;;;;;4973164;28;20204;-69
2023/06/03 09:35:10;;;;;;;4.57;2.83;;;20.50;99.90;;;;;;5035724;28;20644;-69
2023/06/03 09:37:36;;;;;;;6.90;3.33;;;21.00;99.90;;;;;;4993415;28;20169;-69
2023/06/03 09:40:04;;;;;;;5.57;3.47;;;20.90;99.90;;;;;;4981358;28;20573;-68
2023/06/03 09:42:43;;;;;;;3.72;3.15;;;20.90;99.90;;;;;;4987555;28;20173;-69
2023/06/03 09:45:23;;;;;;;4.82;2.80;;;20.80;99.90;;;;;;4992918;28;20183;-70
2023/06/03 09:47:49;;;;;;;4.95;3.00;;;20.80;99.90;;;;;;4983544;28;20553;-70
2023/06/03 09:50:15;;;;;;;3.47;3.03;;;20.90;99.90;;;;;;4983527;28;20204;-68
2023/06/03 09:52:40;;;;;;;4.53;3.35;;;20.90;99.90;;;;;;4973317;28;20166;-68
2023/06/03 09:55:08;;;;;;;5.25;2.95;;;21.10;99.90;;;;;;4973346;28;20169;-70
2023/06/03 09:57:35;;;;;;;3.85;3.33;;;21.30;99.90;;;;;;4971391;28;20256;-69
2023/06/03 10:00:12;;;;;;;4.22;2.83;;;21.10;99.90;;;;;;4972913;28;20822;-69
2023/06/03 10:02:39;;;;;;;5.07;3.10;;;21.20;99.90;;;;;;4981246;28;20603;-69
2023/06/03 10:05:28;;;;;;;3.72;3.08;;;21.30;99.90;;;;;;4972709;28;20169;-69
2023/06/03 10:07:54;;;;;;;5.13;3.05;;;21.50;99.90;;;;;;4976945;28;20203;-68
2023/06/03 10:10:21;;;;;;;4.10;2.97;;;22.00;99.90;;;;;;4972859;28;20227;-68
2023/06/03 10:12:48;;;;;;;4.13;3.20;;;22.20;99.90;;;;;;4973202;28;20184;-69
2023/06/03 10:15:32;;;;;;;5.65;3.35;;;22.20;99.90;;;;;;4976306;28;20280;-68
2023/06/03 10:17:58;;;;;;;3.88;2.80;;;22.20;99.90;;;;;;4977568;28;20562;-69
2023/06/03 10:20:49;;;;;;;8.77;3.10;;;22.10;99.90;;;;;;4981442;28;20204;-69
2023/06/03 10:23:15;;;;;;;4.72;3.15;;;22.40;99.90;;;;;;4972409;28;20185;-69
2023/06/03 10:25:43;;;;;;;3.55;3.25;;;22.80;99.90;;;;;;4972982;28;20568;-68
2023/06/03 10:28:13;;;;;;;4.78;3.20;;;22.80;99.90;;;;;;4984188;28;20181;-68
2023/06/03 10:30:39;;;;;;;3.95;3.20;;;22.80;99.90;;;;;;4973334;28;20204;-69
2023/06/03 10:33:08;;;;;;;6.35;3.92;;;22.80;99.90;;;;;;4973056;28;20181;-69
2023/06/03 10:35:36;;;;;;;5.18;2.80;;;22.70;99.90;;;;;;4972508;28;20591;-70
2023/06/03 10:38:06;;;;;;;4.65;2.88;;;22.40;99.90;;;;;;4978258;28;20637;-71
2023/06/03 10:40:32;;;;;;;7.45;3.25;;;22.10;99.90;;;;;;4990819;28;20665;-69
2023/06/03 10:42:58;;;;;;;3.67;3.38;;;22.70;99.90;;;;;;4978133;28;20264;-70
2023/06/03 10:45:26;;;;;;;6.22;3.30;;;22.60;99.90;;;;;;4978478;28;20613;-69
2023/06/03 10:48:02;;;;;;;4.78;3.35;;;22.80;99.90;;;;;;4991295;28;20169;-69
2023/06/03 10:50:52;;;;;;;4.78;3.10;;;22.90;99.90;;;;;;4963110;28;20189;-69
2023/06/03 10:53:21;;;;;;;4.18;3.45;;;23.30;99.90;;;;;;4984899;28;20691;-70
2023/06/03 10:55:46;;;;;;;4.13;3.10;;;23.60;99.90;;;;;;5004673;28;20590;-68
2023/06/03 10:58:21;;;;;;;6.53;3.47;;;23.50;99.90;;;;;;4972169;28;20256;-68
2023/06/03 11:00:59;;;;;;;4.22;2.85;;;23.30;99.90;;;;;;4976380;28;20206;-70
2023/06/03 11:03:27;;;;;;;4.57;2.90;;;23.30;99.90;;;;;;4953636;29;20257;-69
2023/06/03 11:05:53;;;;;;;4.10;3.20;;;22.90;99.90;;;;;;4965717;28;20581;-70
2023/06/03 11:08:57;;;;;;;5.57;2.97;;;23.40;99.90;;;;;;4972693;28;20189;-70
2023/06/03 11:11:41;;;;;;;4.13;2.60;;;23.70;99.90;;;;;;4972832;28;20287;-71
2023/06/03 11:14:25;;;;;;;8.77;3.42;;;23.70;99.90;;;;;;4964885;28;20248;-71
2023/06/03 11:16:56;;;;;;;4.90;3.50;;;23.30;99.90;;;;;;4964128;28;20193;-65
2023/06/03 11:19:30;;;;;;;3.03;2.75;;;23.40;99.90;;;;;;4990203;28;20176;-65
2023/06/03 11:21:55;;;;;;;4.93;3.40;;;23.90;99.90;;;;;;4989939;28;20169;-66
2023/06/03 11:24:42;;;;;;;3.72;3.42;;;24.00;99.90;;;;;;4991833;28;20624;-65
2023/06/03 11:27:12;;;;;;;5.47;3.20;;;23.90;99.90;;;;;;4983151;28;20219;-66
2023/06/03 11:29:47;;;;;;;4.07;3.40;;;23.80;99.90;;;;;;4974806;28;20165;-66
2023/06/03 11:32:13;;;;;;;5.53;2.92;;;24.10;99.90;;;;;;4991340;28;20221;-65
2023/06/03 11:34:39;;;;;;;4.55;3.25;;;23.90;99.90;;;;;;4981143;28;20208;-65
2023/06/03 11:37:05;;;;;;;5.20;3.20;;;24.20;99.90;;;;;;4971691;28;20193;-66
2023/06/03 11:39:56;;;;;;;3.53;3.17;;;23.80;99.90;;;;;;4991587;28;20169;-64
2023/06/03 11:42:22;;;;;;;4.53;3.35;;;24.60;99.90;;;;;;4969616;28;20193;-65
2023/06/03 11:44:47;;;;;;;3.50;3.20;;;24.90;99.90;;;;;;4970895;28;20184;-66
2023/06/03 11:47:13;;;;;;;6.60;3.40;;;25.10;99.90;;;;;;4972107;28;20192;-66
2023/06/03 11:49:40;;;;;;;5.00;3.45;;;24.70;99.90;;;;;;4972358;28;20264;-66
2023/06/03 11:52:07;;;;;;;4.70;3.65;;;24.30;99.90;;;;;;4977079;28;20218;-65
2023/06/03 11:54:34;;;;;;;5.35;3.58;;;24.60;99.90;;;;;;4991277;28;20215;-66
2023/06/03 11:57:02;;;;;;;4.20;3.22;;;24.80;99.90;;;;;;4986016;28;20271;-66
2023/06/03 11:59:32;;;;;;;4.30;3.45;;;25.30;99.90;;;;;;4971522;28;20253;-66
2023/06/03 12:01:59;;;;;;;4.00;3.60;;;25.20;99.90;;;;;;5049391;28;20206;-67
2023/06/03 12:04:25;;;;;;;5.22;3.47;;;25.10;99.90;;;;;;5001417;28;20178;-65
2023/06/03 12:06:50;;;;;;;6.22;3.15;;;25.10;99.90;;;;;;4971761;28;20189;-65
2023/06/03 12:09:21;;;;;;;5.10;3.50;;;25.90;99.90;;;;;;5055034;28;20649;-65
2023/06/03 12:11:46;;;;;;;4.20;3.53;;;25.80;98.90;;;;;;4971622;28;20286;-67
2023/06/03 12:14:32;;;;;;;4.50;3.38;;;25.40;99.90;;;;;;4970137;28;20181;-68
2023/06/03 12:17:11;;;;;;;3.67;3.38;;;25.50;99.90;;;;;;4960992;28;20200;-67
2023/06/03 12:19:38;;;;;;;6.00;3.80;;;25.30;99.90;;;;;;4971122;28;20183;-67
2023/06/03 12:22:04;;;;;;;6.10;3.58;;;25.00;99.90;;;;;;4971610;28;20656;-66
2023/06/03 12:24:31;;;;;;;3.88;3.53;;;25.10;99.90;;;;;;4971266;28;20169;-68
2023/06/03 12:27:09;;;;;;;4.28;3.90;;;24.80;99.90;;;;;;4970740;28;20209;-68
2023/06/03 12:29:47;;;;;;;4.93;3.92;;;24.60;99.90;;;;;;4970840;28;20245;-67
2023/06/03 12:32:13;;;;;;;4.78;3.67;;;24.40;99.90;;;;;;4972259;28;20180;-67
2023/06/03 12:34:40;;;;;;;5.78;3.72;;;25.10;99.90;;;;;;4971667;28;20166;-68
2023/06/03 12:37:07;;;;;;;4.40;3.67;;;25.60;99.90;;;;;;4987291;28;20522;-66
2023/06/03 12:39:40;;;;;;;4.53;4.05;;;25.90;98.80;;;;;;4974584;28;20185;-68
2023/06/03 12:42:06;;;;;;;3.83;3.53;;;26.20;99.60;;;;;;4974419;28;20187;-69
2023/06/03 12:44:46;;;;;;;7.00;3.53;;;26.20;99.10;;;;;;4974288;28;20173;-67
2023/06/03 12:47:14;;;;;;;4.70;3.38;;;26.40;97.20;;;;;;4973938;28;20563;-67
2023/06/03 12:49:40;;;;;;;3.75;3.38;;;26.20;98.60;;;;;;4974781;28;20184;-67
2023/06/03 12:52:18;;;;;;;3.78;3.47;;;26.60;96.90;;;;;;4974241;28;20184;-67
2023/06/03 12:54:47;;;;;;;3.60;3.25;;;26.80;96.10;;;;;;4974045;28;20636;-68